sensor_id;sensor_type;location;lat;lon;timestamp;P1;durP1;ratioP1;P2;durP2;ratioP2
1376;SDS011;682;52.502;13.488;2022-07-23T00:00:44;7.50;;;6.80;;
1376;SDS011;682;52.502;13.488;2022-07-23T00:03:13;8.90;;;7.00;;
1376;SDS011;682;52.502;13.488;2022-07-23T00:05:40;8.27;;;7.47;;
1376;SDS011;682;52.502;13.488;2022-07-23T00:08:10;16.47;;;14.87;;
1376;SDS011;682;52.502;13.488;2022-07-23T00:10:42;7.57;;;6.87;;
1376;SDS011;682;52.502;13.488;2022-07-23T00:13:18;10.13;;;9.03;;
1376;SDS011;682;52.502;13.488;2022-07-23T00:15:45;9.30;;;8.40;;
1376;SDS011;682;52.502;13.488;2022-07-23T00:18:22;8.77;;;7.87;;
1376;SDS011;682;52.502;13.488;2022-07-23T00:20:48;7.73;;;7.03;;
1376;SDS011;682;52.502;13.488;2022-07-23T00:23:16;9.17;;;8.10;;
1376;SDS011;682;52.502;13.488;2022-07-23T00:25:51;7.90;;;7.20;;
1376;SDS011;682;52.502;13.488;2022-07-23T00:28:22;9.20;;;8.30;;
1376;SDS011;682;52.502;13.488;2022-07-23T00:30:48;8.43;;;7.63;;
1376;SDS011;682;52.502;13.488;2022-07-23T00:33:15;8.10;;;7.30;;
1376;SDS011;682;52.502;13.488;2022-07-23T00:35:47;9.10;;;7.50;;
1376;SDS011;682;52.502;13.488;2022-07-23T00:38:14;9.90;;;7.87;;
1376;SDS011;682;52.502;13.488;2022-07-23T00:40:42;7.47;;;6.77;;
1376;SDS011;682;52.502;13.488;2022-07-23T00:43:10;8.40;;;7.60;;
1376;SDS011;682;52.502;13.488;2022-07-23T00:45:37;7.40;;;6.70;;
1376;SDS011;682;52.502;13.488;2022-07-23T00:48:05;7.40;;;6.70;;
1376;SDS011;682;52.502;13.488;2022-07-23T00:50:32;8.20;;;7.00;;
1376;SDS011;682;52.502;13.488;2022-07-23T00:52:59;9.60;;;6.93;;
1376;SDS011;682;52.502;13.488;2022-07-23T00:55:26;8.53;;;7.03;;
1376;SDS011;682;52.502;13.488;2022-07-23T00:57:53;7.87;;;6.97;;
1376;SDS011;682;52.502;13.488;2022-07-23T01:00:22;7.30;;;6.47;;
1376;SDS011;682;52.502;13.488;2022-07-23T01:02:49;9.00;;;7.03;;
1376;SDS011;682;52.502;13.488;2022-07-23T01:05:19;7.50;;;6.40;;
1376;SDS011;682;52.502;13.488;2022-07-23T01:07:47;9.73;;;6.67;;
1376;SDS011;682;52.502;13.488;2022-07-23T01:10:14;7.10;;;6.27;;
1376;SDS011;682;52.502;13.488;2022-07-23T01:13:00;10.23;;;7.50;;
1376;SDS011;682;52.502;13.488;2022-07-23T01:15:30;7.30;;;6.60;;
1376;SDS011;682;52.502;13.488;2022-07-23T01:17:58;7.90;;;7.20;;
1376;SDS011;682;52.502;13.488;2022-07-23T01:20:25;8.93;;;7.57;;
1376;SDS011;682;52.502;13.488;2022-07-23T01:22:53;9.40;;;7.13;;
1376;SDS011;682;52.502;13.488;2022-07-23T01:25:23;8.37;;;7.57;;
1376;SDS011;682;52.502;13.488;2022-07-23T01:27:51;8.60;;;7.73;;
1376;SDS011;682;52.502;13.488;2022-07-23T01:30:19;9.63;;;7.00;;
1376;SDS011;682;52.502;13.488;2022-07-23T01:32:46;7.10;;;6.20;;
1376;SDS011;682;52.502;13.488;2022-07-23T01:35:13;8.30;;;7.03;;
1376;SDS011;682;52.502;13.488;2022-07-23T01:37:40;8.83;;;7.90;;
1376;SDS011;682;52.502;13.488;2022-07-23T01:40:13;8.30;;;6.93;;
1376;SDS011;682;52.502;13.488;2022-07-23T01:42:40;7.53;;;6.67;;
1376;SDS011;682;52.502;13.488;2022-07-23T01:45:12;8.83;;;7.90;;
1376;SDS011;682;52.502;13.488;2022-07-23T01:47:39;8.97;;;7.97;;
1376;SDS011;682;52.502;13.488;2022-07-23T01:50:06;8.03;;;7.23;;
1376;SDS011;682;52.502;13.488;2022-07-23T01:52:38;9.00;;;8.10;;
1376;SDS011;682;52.502;13.488;2022-07-23T01:55:06;8.70;;;7.70;;
1376;SDS011;682;52.502;13.488;2022-07-23T01:57:40;9.03;;;8.23;;
1376;SDS011;682;52.502;13.488;2022-07-23T02:00:08;10.23;;;7.20;;
1376;SDS011;682;52.502;13.488;2022-07-23T02:02:38;8.37;;;7.60;;
1376;SDS011;682;52.502;13.488;2022-07-23T02:05:05;8.90;;;7.87;;
1376;SDS011;682;52.502;13.488;2022-07-23T02:07:38;8.90;;;8.00;;
1376;SDS011;682;52.502;13.488;2022-07-23T02:10:06;8.70;;;7.80;;
1376;SDS011;682;52.502;13.488;2022-07-23T02:12:37;8.20;;;7.40;;
1376;SDS011;682;52.502;13.488;2022-07-23T02:15:06;10.93;;;7.73;;
1376;SDS011;682;52.502;13.488;2022-07-23T02:17:39;7.27;;;6.57;;
1376;SDS011;682;52.502;13.488;2022-07-23T02:20:07;8.50;;;7.17;;
1376;SDS011;682;52.502;13.488;2022-07-23T02:22:39;10.13;;;7.37;;
1376;SDS011;682;52.502;13.488;2022-07-23T02:25:07;8.80;;;7.90;;
1376;SDS011;682;52.502;13.488;2022-07-23T02:27:38;8.50;;;6.87;;
1376;SDS011;682;52.502;13.488;2022-07-23T02:30:10;8.20;;;7.07;;
1376;SDS011;682;52.502;13.488;2022-07-23T02:32:40;7.60;;;6.90;;
1376;SDS011;682;52.502;13.488;2022-07-23T02:35:07;7.97;;;6.80;;
1376;SDS011;682;52.502;13.488;2022-07-23T02:37:38;7.37;;;6.57;;
1376;SDS011;682;52.502;13.488;2022-07-23T02:40:06;7.70;;;6.77;;
1376;SDS011;682;52.502;13.488;2022-07-23T02:42:38;7.70;;;6.77;;
1376;SDS011;682;52.502;13.488;2022-07-23T02:45:12;8.13;;;7.30;;
1376;SDS011;682;52.502;13.488;2022-07-23T02:47:40;8.03;;;7.10;;
1376;SDS011;682;52.502;13.488;2022-07-23T02:50:12;9.13;;;7.67;;
1376;SDS011;682;52.502;13.488;2022-07-23T02:52:39;8.10;;;7.37;;
1376;SDS011;682;52.502;13.488;2022-07-23T02:55:07;10.17;;;6.47;;
1376;SDS011;682;52.502;13.488;2022-07-23T02:57:39;7.90;;;7.10;;
1376;SDS011;682;52.502;13.488;2022-07-23T03:00:09;9.30;;;7.40;;
1376;SDS011;682;52.502;13.488;2022-07-23T03:02:39;7.43;;;6.73;;
1376;SDS011;682;52.502;13.488;2022-07-23T03:05:06;8.00;;;7.20;;
1376;SDS011;682;52.502;13.488;2022-07-23T03:07:39;8.57;;;7.50;;
1376;SDS011;682;52.502;13.488;2022-07-23T03:10:06;8.83;;;7.10;;
1376;SDS011;682;52.502;13.488;2022-07-23T03:12:37;9.77;;;7.43;;
1376;SDS011;682;52.502;13.488;2022-07-23T03:15:05;8.50;;;7.60;;
1376;SDS011;682;52.502;13.488;2022-07-23T03:17:39;9.17;;;7.60;;
1376;SDS011;682;52.502;13.488;2022-07-23T03:20:10;7.20;;;6.43;;
1376;SDS011;682;52.502;13.488;2022-07-23T03:22:39;8.20;;;7.40;;
1376;SDS011;682;52.502;13.488;2022-07-23T03:25:06;8.40;;;7.57;;
1376;SDS011;682;52.502;13.488;2022-07-23T03:27:39;7.73;;;7.03;;
1376;SDS011;682;52.502;13.488;2022-07-23T03:30:06;13.60;;;8.70;;
1376;SDS011;682;52.502;13.488;2022-07-23T03:32:39;8.83;;;7.93;;
1376;SDS011;682;52.502;13.488;2022-07-23T03:35:12;8.93;;;7.40;;
1376;SDS011;682;52.502;13.488;2022-07-23T03:37:39;9.97;;;9.00;;
1376;SDS011;682;52.502;13.488;2022-07-23T03:40:07;8.80;;;8.00;;
1376;SDS011;682;52.502;13.488;2022-07-23T03:42:39;8.83;;;7.93;;
1376;SDS011;682;52.502;13.488;2022-07-23T03:45:07;9.23;;;8.33;;
1376;SDS011;682;52.502;13.488;2022-07-23T03:47:40;7.90;;;7.10;;
1376;SDS011;682;52.502;13.488;2022-07-23T03:50:09;9.40;;;8.50;;
1376;SDS011;682;52.502;13.488;2022-07-23T03:52:36;8.53;;;7.73;;
1376;SDS011;682;52.502;13.488;2022-07-23T03:55:03;9.17;;;8.17;;
1376;SDS011;682;52.502;13.488;2022-07-23T03:57:32;8.80;;;7.70;;
1376;SDS011;682;52.502;13.488;2022-07-23T03:59:59;8.73;;;7.77;;
1376;SDS011;682;52.502;13.488;2022-07-23T04:02:27;7.10;;;6.40;;
1376;SDS011;682;52.502;13.488;2022-07-23T04:05:00;9.00;;;6.57;;
1376;SDS011;682;52.502;13.488;2022-07-23T04:07:27;7.70;;;6.20;;
1376;SDS011;682;52.502;13.488;2022-07-23T04:09:59;11.60;;;7.30;;
1376;SDS011;682;52.502;13.488;2022-07-23T04:12:26;9.13;;;6.80;;
1376;SDS011;682;52.502;13.488;2022-07-23T04:14:54;10.10;;;9.27;;
1376;SDS011;682;52.502;13.488;2022-07-23T04:17:20;7.47;;;6.77;;
1376;SDS011;682;52.502;13.488;2022-07-23T04:19:50;7.00;;;5.57;;
1376;SDS011;682;52.502;13.488;2022-07-23T04:22:20;8.80;;;6.10;;
1376;SDS011;682;52.502;13.488;2022-07-23T04:24:47;6.83;;;5.70;;
1376;SDS011;682;52.502;13.488;2022-07-23T04:27:19;8.23;;;5.90;;
1376;SDS011;682;52.502;13.488;2022-07-23T04:29:47;9.67;;;6.00;;
1376;SDS011;682;52.502;13.488;2022-07-23T04:32:21;7.33;;;5.83;;
1376;SDS011;682;52.502;13.488;2022-07-23T04:34:51;7.50;;;5.50;;
1376;SDS011;682;52.502;13.488;2022-07-23T04:37:21;6.10;;;4.40;;
1376;SDS011;682;52.502;13.488;2022-07-23T04:39:52;6.30;;;4.93;;
1376;SDS011;682;52.502;13.488;2022-07-23T04:42:20;8.30;;;4.20;;
1376;SDS011;682;52.502;13.488;2022-07-23T04:44:47;7.90;;;5.17;;
1376;SDS011;682;52.502;13.488;2022-07-23T04:47:18;11.70;;;6.43;;
1376;SDS011;682;52.502;13.488;2022-07-23T04:49:45;6.90;;;5.20;;
1376;SDS011;682;52.502;13.488;2022-07-23T04:52:12;8.73;;;5.93;;
1376;SDS011;682;52.502;13.488;2022-07-23T04:54:41;9.77;;;5.70;;
1376;SDS011;682;52.502;13.488;2022-07-23T04:57:12;7.93;;;6.10;;
1376;SDS011;682;52.502;13.488;2022-07-23T04:59:42;8.23;;;5.80;;
1376;SDS011;682;52.502;13.488;2022-07-23T05:02:10;7.97;;;4.90;;
1376;SDS011;682;52.502;13.488;2022-07-23T05:04:43;5.67;;;4.90;;
1376;SDS011;682;52.502;13.488;2022-07-23T05:07:10;7.87;;;5.40;;
1376;SDS011;682;52.502;13.488;2022-07-23T05:09:43;5.90;;;5.30;;
1376;SDS011;682;52.502;13.488;2022-07-23T05:12:10;6.57;;;5.77;;
1376;SDS011;682;52.502;13.488;2022-07-23T05:14:36;6.20;;;5.60;;
1376;SDS011;682;52.502;13.488;2022-07-23T05:17:13;13.63;;;6.03;;
1376;SDS011;682;52.502;13.488;2022-07-23T05:19:43;7.30;;;6.60;;
1376;SDS011;682;52.502;13.488;2022-07-23T05:22:15;8.37;;;5.87;;
1376;SDS011;682;52.502;13.488;2022-07-23T05:24:44;8.17;;;6.13;;
1376;SDS011;682;52.502;13.488;2022-07-23T05:27:13;8.30;;;6.43;;
1376;SDS011;682;52.502;13.488;2022-07-23T05:29:43;7.90;;;6.73;;
1376;SDS011;682;52.502;13.488;2022-07-23T05:32:13;11.30;;;7.10;;
1376;SDS011;682;52.502;13.488;2022-07-23T05:34:39;7.77;;;6.63;;
1376;SDS011;682;52.502;13.488;2022-07-23T05:37:06;9.57;;;6.67;;
1376;SDS011;682;52.502;13.488;2022-07-23T05:39:34;8.20;;;7.40;;
1376;SDS011;682;52.502;13.488;2022-07-23T05:42:03;8.77;;;7.87;;
1376;SDS011;682;52.502;13.488;2022-07-23T05:44:33;7.83;;;5.50;;
1376;SDS011;682;52.502;13.488;2022-07-23T05:47:00;8.07;;;6.40;;
1376;SDS011;682;52.502;13.488;2022-07-23T05:49:27;8.47;;;6.73;;
1376;SDS011;682;52.502;13.488;2022-07-23T05:52:02;12.47;;;6.43;;
1376;SDS011;682;52.502;13.488;2022-07-23T05:54:33;6.00;;;5.33;;
1376;SDS011;682;52.502;13.488;2022-07-23T05:57:02;21.10;;;18.80;;
1376;SDS011;682;52.502;13.488;2022-07-23T05:59:33;6.80;;;5.90;;
1376;SDS011;682;52.502;13.488;2022-07-23T06:02:00;7.93;;;5.70;;
1376;SDS011;682;52.502;13.488;2022-07-23T06:04:27;6.80;;;5.63;;
1376;SDS011;682;52.502;13.488;2022-07-23T06:06:58;9.70;;;7.10;;
1376;SDS011;682;52.502;13.488;2022-07-23T06:09:26;7.13;;;6.13;;
1376;SDS011;682;52.502;13.488;2022-07-23T06:11:58;8.93;;;6.77;;
1376;SDS011;682;52.502;13.488;2022-07-23T06:14:33;7.53;;;6.70;;
1376;SDS011;682;52.502;13.488;2022-07-23T06:17:00;7.80;;;6.30;;
1376;SDS011;682;52.502;13.488;2022-07-23T06:19:26;9.30;;;6.90;;
1376;SDS011;682;52.502;13.488;2022-07-23T06:21:53;10.33;;;7.23;;
1376;SDS011;682;52.502;13.488;2022-07-23T06:24:22;8.80;;;6.57;;
1376;SDS011;682;52.502;13.488;2022-07-23T06:26:50;9.13;;;7.30;;
1376;SDS011;682;52.502;13.488;2022-07-23T06:29:17;7.47;;;6.23;;
1376;SDS011;682;52.502;13.488;2022-07-23T06:31:51;7.90;;;6.27;;
1376;SDS011;682;52.502;13.488;2022-07-23T06:34:20;8.20;;;7.30;;
1376;SDS011;682;52.502;13.488;2022-07-23T06:36:47;7.67;;;6.97;;
1376;SDS011;682;52.502;13.488;2022-07-23T06:39:17;10.43;;;7.20;;
1376;SDS011;682;52.502;13.488;2022-07-23T06:41:45;8.27;;;7.00;;
1376;SDS011;682;52.502;13.488;2022-07-23T06:44:11;10.37;;;7.47;;
1376;SDS011;682;52.502;13.488;2022-07-23T06:46:40;10.90;;;7.90;;
1376;SDS011;682;52.502;13.488;2022-07-23T06:49:11;8.63;;;7.10;;
1376;SDS011;682;52.502;13.488;2022-07-23T06:51:40;13.23;;;7.90;;
1376;SDS011;682;52.502;13.488;2022-07-23T06:54:07;8.20;;;7.43;;
1376;SDS011;682;52.502;13.488;2022-07-23T06:56:39;8.27;;;7.50;;
1376;SDS011;682;52.502;13.488;2022-07-23T06:59:07;10.63;;;7.70;;
1376;SDS011;682;52.502;13.488;2022-07-23T07:01:38;8.57;;;7.77;;
1376;SDS011;682;52.502;13.488;2022-07-23T07:04:05;10.17;;;7.50;;
1376;SDS011;682;52.502;13.488;2022-07-23T07:06:35;7.93;;;7.13;;
1376;SDS011;682;52.502;13.488;2022-07-23T07:09:01;10.00;;;7.83;;
1376;SDS011;682;52.502;13.488;2022-07-23T07:11:33;9.67;;;8.13;;
1376;SDS011;682;52.502;13.488;2022-07-23T07:14:01;8.80;;;7.23;;
1376;SDS011;682;52.502;13.488;2022-07-23T07:16:31;8.17;;;6.90;;
1376;SDS011;682;52.502;13.488;2022-07-23T07:19:00;7.70;;;6.90;;
1376;SDS011;682;52.502;13.488;2022-07-23T07:21:26;9.67;;;6.83;;
1376;SDS011;682;52.502;13.488;2022-07-23T07:24:00;7.03;;;6.27;;
1376;SDS011;682;52.502;13.488;2022-07-23T07:26:26;7.27;;;6.67;;
1376;SDS011;682;52.502;13.488;2022-07-23T07:28:56;8.70;;;6.03;;
1376;SDS011;682;52.502;13.488;2022-07-23T07:31:23;8.30;;;7.50;;
1376;SDS011;682;52.502;13.488;2022-07-23T07:33:53;9.03;;;6.30;;
1376;SDS011;682;52.502;13.488;2022-07-23T07:36:21;7.30;;;6.27;;
1376;SDS011;682;52.502;13.488;2022-07-23T07:38:48;5.83;;;5.23;;
1376;SDS011;682;52.502;13.488;2022-07-23T07:41:17;6.53;;;5.93;;
1376;SDS011;682;52.502;13.488;2022-07-23T07:43:53;9.20;;;6.70;;
1376;SDS011;682;52.502;13.488;2022-07-23T07:46:20;7.00;;;6.30;;
1376;SDS011;682;52.502;13.488;2022-07-23T07:48:50;7.70;;;6.30;;
1376;SDS011;682;52.502;13.488;2022-07-23T07:51:17;8.37;;;6.73;;
1376;SDS011;682;52.502;13.488;2022-07-23T07:53:44;7.90;;;7.13;;
1376;SDS011;682;52.502;13.488;2022-07-23T07:56:13;7.40;;;6.70;;
1376;SDS011;682;52.502;13.488;2022-07-23T07:58:42;9.20;;;7.30;;
1376;SDS011;682;52.502;13.488;2022-07-23T08:01:09;9.27;;;7.00;;
1376;SDS011;682;52.502;13.488;2022-07-23T08:03:40;11.27;;;7.50;;
1376;SDS011;682;52.502;13.488;2022-07-23T08:06:11;7.10;;;6.47;;
1376;SDS011;682;52.502;13.488;2022-07-23T08:08:43;9.23;;;8.17;;
1376;SDS011;682;52.502;13.488;2022-07-23T08:11:16;9.63;;;8.53;;
1376;SDS011;682;52.502;13.488;2022-07-23T08:13:44;8.13;;;7.33;;
1376;SDS011;682;52.502;13.488;2022-07-23T08:16:13;10.20;;;8.00;;
1376;SDS011;682;52.502;13.488;2022-07-23T08:18:40;8.83;;;7.87;;
1376;SDS011;682;52.502;13.488;2022-07-23T08:21:09;9.37;;;8.07;;
1376;SDS011;682;52.502;13.488;2022-07-23T08:23:39;11.70;;;7.70;;
1376;SDS011;682;52.502;13.488;2022-07-23T08:26:06;10.10;;;9.10;;
1376;SDS011;682;52.502;13.488;2022-07-23T08:28:36;11.00;;;7.87;;
1376;SDS011;682;52.502;13.488;2022-07-23T08:31:03;7.70;;;6.80;;
1376;SDS011;682;52.502;13.488;2022-07-23T08:33:33;9.80;;;6.67;;
1376;SDS011;682;52.502;13.488;2022-07-23T08:36:01;7.77;;;7.03;;
1376;SDS011;682;52.502;13.488;2022-07-23T08:38:32;7.80;;;7.10;;
1376;SDS011;682;52.502;13.488;2022-07-23T08:41:03;8.80;;;7.27;;
1376;SDS011;682;52.502;13.488;2022-07-23T08:43:41;9.10;;;8.20;;
1376;SDS011;682;52.502;13.488;2022-07-23T08:46:13;7.83;;;6.27;;
1376;SDS011;682;52.502;13.488;2022-07-23T08:48:40;12.90;;;6.37;;
1376;SDS011;682;52.502;13.488;2022-07-23T08:51:07;8.30;;;5.90;;
1376;SDS011;682;52.502;13.488;2022-07-23T08:53:38;8.13;;;6.23;;
1376;SDS011;682;52.502;13.488;2022-07-23T08:56:08;10.67;;;6.60;;
1376;SDS011;682;52.502;13.488;2022-07-23T08:58:41;6.30;;;5.40;;
1376;SDS011;682;52.502;13.488;2022-07-23T09:01:08;6.90;;;5.37;;
1376;SDS011;682;52.502;13.488;2022-07-23T09:03:40;7.20;;;6.10;;
1376;SDS011;682;52.502;13.488;2022-07-23T09:06:15;8.17;;;5.57;;
1376;SDS011;682;52.502;13.488;2022-07-23T09:08:43;7.90;;;5.30;;
1376;SDS011;682;52.502;13.488;2022-07-23T09:11:15;7.40;;;4.90;;
1376;SDS011;682;52.502;13.488;2022-07-23T09:13:47;7.20;;;6.30;;
1376;SDS011;682;52.502;13.488;2022-07-23T09:16:24;8.70;;;5.70;;
1376;SDS011;682;52.502;13.488;2022-07-23T09:18:54;7.90;;;5.47;;
1376;SDS011;682;52.502;13.488;2022-07-23T09:21:23;6.17;;;4.83;;
1376;SDS011;682;52.502;13.488;2022-07-23T09:23:55;6.93;;;5.37;;
1376;SDS011;682;52.502;13.488;2022-07-23T09:26:25;8.40;;;5.93;;
1376;SDS011;682;52.502;13.488;2022-07-23T09:29:04;8.70;;;5.07;;
1376;SDS011;682;52.502;13.488;2022-07-23T09:31:34;8.47;;;5.17;;
1376;SDS011;682;52.502;13.488;2022-07-23T09:34:14;6.20;;;5.60;;
1376;SDS011;682;52.502;13.488;2022-07-23T09:36:43;4.63;;;4.20;;
1376;SDS011;682;52.502;13.488;2022-07-23T09:39:14;6.23;;;4.70;;
1376;SDS011;682;52.502;13.488;2022-07-23T09:41:43;9.23;;;8.23;;
1376;SDS011;682;52.502;13.488;2022-07-23T09:44:17;10.40;;;4.90;;
1376;SDS011;682;52.502;13.488;2022-07-23T09:46:46;6.30;;;4.90;;
1376;SDS011;682;52.502;13.488;2022-07-23T09:49:17;5.50;;;4.60;;
1376;SDS011;682;52.502;13.488;2022-07-23T09:51:47;10.80;;;5.00;;
1376;SDS011;682;52.502;13.488;2022-07-23T09:57:12;6.23;;;4.70;;
1376;SDS011;682;52.502;13.488;2022-07-23T10:02:34;6.30;;;4.37;;
1376;SDS011;682;52.502;13.488;2022-07-23T10:05:05;6.03;;;3.90;;
1376;SDS011;682;52.502;13.488;2022-07-23T10:07:36;7.40;;;4.50;;
1376;SDS011;682;52.502;13.488;2022-07-23T10:10:14;8.40;;;5.07;;
1376;SDS011;682;52.502;13.488;2022-07-23T10:12:54;11.20;;;5.80;;
1376;SDS011;682;52.502;13.488;2022-07-23T10:15:40;8.93;;;4.97;;
1376;SDS011;682;52.502;13.488;2022-07-23T10:18:13;8.10;;;4.77;;
1376;SDS011;682;52.502;13.488;2022-07-23T10:20:40;8.43;;;5.70;;
1376;SDS011;682;52.502;13.488;2022-07-23T10:23:10;7.80;;;5.07;;
1376;SDS011;682;52.502;13.488;2022-07-23T10:25:44;9.60;;;6.00;;
1376;SDS011;682;52.502;13.488;2022-07-23T10:28:28;9.93;;;5.13;;
1376;SDS011;682;52.502;13.488;2022-07-23T10:31:17;8.80;;;4.43;;
1376;SDS011;682;52.502;13.488;2022-07-23T10:34:02;7.80;;;4.57;;
1376;SDS011;682;52.502;13.488;2022-07-23T10:36:42;8.13;;;5.47;;
1376;SDS011;682;52.502;13.488;2022-07-23T10:39:24;7.67;;;3.97;;
1376;SDS011;682;52.502;13.488;2022-07-23T10:42:08;9.73;;;4.10;;
1376;SDS011;682;52.502;13.488;2022-07-23T10:44:40;8.67;;;4.10;;
1376;SDS011;682;52.502;13.488;2022-07-23T10:47:20;7.30;;;5.20;;
1376;SDS011;682;52.502;13.488;2022-07-23T10:50:18;6.20;;;3.80;;
1376;SDS011;682;52.502;13.488;2022-07-23T10:55:47;6.80;;;3.40;;
1376;SDS011;682;52.502;13.488;2022-07-23T10:58:21;7.77;;;4.20;;
1376;SDS011;682;52.502;13.488;2022-07-23T11:04:14;7.37;;;4.00;;
1376;SDS011;682;52.502;13.488;2022-07-23T11:09:39;9.50;;;4.30;;
1376;SDS011;682;52.502;13.488;2022-07-23T11:15:04;9.20;;;4.00;;
1376;SDS011;682;52.502;13.488;2022-07-23T11:17:35;9.20;;;4.20;;
1376;SDS011;682;52.502;13.488;2022-07-23T11:20:19;9.20;;;3.93;;
1376;SDS011;682;52.502;13.488;2022-07-23T11:22:51;9.77;;;4.77;;
1376;SDS011;682;52.502;13.488;2022-07-23T11:25:35;7.60;;;3.43;;
1376;SDS011;682;52.502;13.488;2022-07-23T11:28:09;9.17;;;3.43;;
1376;SDS011;682;52.502;13.488;2022-07-23T11:30:42;6.80;;;3.60;;
1376;SDS011;682;52.502;13.488;2022-07-23T11:33:19;9.23;;;3.63;;
1376;SDS011;682;52.502;13.488;2022-07-23T11:35:48;8.10;;;3.13;;
1376;SDS011;682;52.502;13.488;2022-07-23T11:38:32;10.10;;;3.50;;
1376;SDS011;682;52.502;13.488;2022-07-23T11:41:03;6.57;;;3.20;;
1376;SDS011;682;52.502;13.488;2022-07-23T11:43:39;8.10;;;3.70;;
1376;SDS011;682;52.502;13.488;2022-07-23T11:46:09;7.80;;;4.03;;
1376;SDS011;682;52.502;13.488;2022-07-23T11:48:42;7.23;;;3.70;;
1376;SDS011;682;52.502;13.488;2022-07-23T11:51:21;8.17;;;4.30;;
1376;SDS011;682;52.502;13.488;2022-07-23T11:53:51;8.33;;;4.10;;
1376;SDS011;682;52.502;13.488;2022-07-23T11:56:18;8.53;;;4.23;;
1376;SDS011;682;52.502;13.488;2022-07-23T11:58:53;7.73;;;3.53;;
1376;SDS011;682;52.502;13.488;2022-07-23T12:01:22;10.10;;;4.60;;
1376;SDS011;682;52.502;13.488;2022-07-23T12:03:51;9.73;;;4.43;;
1376;SDS011;682;52.502;13.488;2022-07-23T12:06:18;9.43;;;4.83;;
1376;SDS011;682;52.502;13.488;2022-07-23T12:08:45;8.00;;;4.63;;
1376;SDS011;682;52.502;13.488;2022-07-23T12:11:12;9.07;;;4.50;;
1376;SDS011;682;52.502;13.488;2022-07-23T12:13:39;8.00;;;4.30;;
1376;SDS011;682;52.502;13.488;2022-07-23T12:16:08;7.87;;;4.77;;
1376;SDS011;682;52.502;13.488;2022-07-23T12:18:35;8.53;;;5.27;;
1376;SDS011;682;52.502;13.488;2022-07-23T12:21:04;8.17;;;4.03;;
1376;SDS011;682;52.502;13.488;2022-07-23T12:23:31;7.80;;;4.23;;
1376;SDS011;682;52.502;13.488;2022-07-23T12:26:00;8.07;;;5.17;;
1376;SDS011;682;52.502;13.488;2022-07-23T12:28:31;10.83;;;5.20;;
1376;SDS011;682;52.502;13.488;2022-07-23T12:31:02;7.90;;;5.10;;
1376;SDS011;682;52.502;13.488;2022-07-23T12:33:30;10.87;;;5.03;;
1376;SDS011;682;52.502;13.488;2022-07-23T12:35:58;9.33;;;4.40;;
1376;SDS011;682;52.502;13.488;2022-07-23T12:38:28;7.60;;;4.33;;
1376;SDS011;682;52.502;13.488;2022-07-23T12:41:03;9.97;;;4.50;;
1376;SDS011;682;52.502;13.488;2022-07-23T12:43:31;10.33;;;5.10;;
1376;SDS011;682;52.502;13.488;2022-07-23T12:46:02;6.47;;;4.00;;
1376;SDS011;682;52.502;13.488;2022-07-23T12:48:30;9.20;;;4.30;;
1376;SDS011;682;52.502;13.488;2022-07-23T12:50:59;8.77;;;4.73;;
1376;SDS011;682;52.502;13.488;2022-07-23T12:53:30;9.73;;;5.20;;
1376;SDS011;682;52.502;13.488;2022-07-23T12:55:59;8.20;;;4.77;;
1376;SDS011;682;52.502;13.488;2022-07-23T12:58:39;8.10;;;4.33;;
1376;SDS011;682;52.502;13.488;2022-07-23T13:01:07;10.13;;;5.30;;
1376;SDS011;682;52.502;13.488;2022-07-23T13:03:35;7.20;;;4.10;;
1376;SDS011;682;52.502;13.488;2022-07-23T13:06:05;7.77;;;4.57;;
1376;SDS011;682;52.502;13.488;2022-07-23T13:08:37;6.90;;;4.40;;
1376;SDS011;682;52.502;13.488;2022-07-23T13:11:06;8.57;;;5.57;;
1376;SDS011;682;52.502;13.488;2022-07-23T13:13:34;8.00;;;5.50;;
1376;SDS011;682;52.502;13.488;2022-07-23T13:16:03;8.33;;;4.93;;
1376;SDS011;682;52.502;13.488;2022-07-23T13:18:30;9.73;;;4.67;;
1376;SDS011;682;52.502;13.488;2022-07-23T13:20:57;8.60;;;4.63;;
1376;SDS011;682;52.502;13.488;2022-07-23T13:23:24;9.13;;;4.63;;
1376;SDS011;682;52.502;13.488;2022-07-23T13:25:53;7.73;;;4.70;;
1376;SDS011;682;52.502;13.488;2022-07-23T13:28:20;8.53;;;5.10;;
1376;SDS011;682;52.502;13.488;2022-07-23T13:30:48;8.03;;;5.20;;
1376;SDS011;682;52.502;13.488;2022-07-23T13:33:17;7.40;;;4.33;;
1376;SDS011;682;52.502;13.488;2022-07-23T13:35:44;7.30;;;4.37;;
1376;SDS011;682;52.502;13.488;2022-07-23T13:38:11;7.17;;;5.27;;
1376;SDS011;682;52.502;13.488;2022-07-23T13:40:39;7.80;;;5.47;;
1376;SDS011;682;52.502;13.488;2022-07-23T13:43:08;8.00;;;4.53;;
1376;SDS011;682;52.502;13.488;2022-07-23T13:45:36;8.60;;;4.50;;
1376;SDS011;682;52.502;13.488;2022-07-23T13:48:04;7.47;;;4.50;;
1376;SDS011;682;52.502;13.488;2022-07-23T13:50:32;9.23;;;5.50;;
1376;SDS011;682;52.502;13.488;2022-07-23T13:53:00;7.13;;;4.30;;
1376;SDS011;682;52.502;13.488;2022-07-23T13:55:29;8.13;;;4.73;;
1376;SDS011;682;52.502;13.488;2022-07-23T13:58:00;7.40;;;4.40;;
1376;SDS011;682;52.502;13.488;2022-07-23T14:00:29;6.63;;;4.60;;
1376;SDS011;682;52.502;13.488;2022-07-23T14:03:04;9.97;;;5.20;;
1376;SDS011;682;52.502;13.488;2022-07-23T14:05:31;9.07;;;5.27;;
1376;SDS011;682;52.502;13.488;2022-07-23T14:08:00;8.73;;;4.80;;
1376;SDS011;682;52.502;13.488;2022-07-23T14:10:28;6.73;;;4.03;;
1376;SDS011;682;52.502;13.488;2022-07-23T14:12:55;6.77;;;4.00;;
1376;SDS011;682;52.502;13.488;2022-07-23T14:15:27;6.10;;;3.60;;
1376;SDS011;682;52.502;13.488;2022-07-23T14:18:00;8.53;;;4.30;;
1376;SDS011;682;52.502;13.488;2022-07-23T14:20:27;6.93;;;4.30;;
1376;SDS011;682;52.502;13.488;2022-07-23T14:22:54;6.87;;;4.03;;
1376;SDS011;682;52.502;13.488;2022-07-23T14:25:29;8.50;;;4.27;;
1376;SDS011;682;52.502;13.488;2022-07-23T14:27:58;7.73;;;4.53;;
1376;SDS011;682;52.502;13.488;2022-07-23T14:30:26;7.30;;;4.20;;
1376;SDS011;682;52.502;13.488;2022-07-23T14:32:54;7.77;;;4.03;;
1376;SDS011;682;52.502;13.488;2022-07-23T14:35:25;8.90;;;4.40;;
1376;SDS011;682;52.502;13.488;2022-07-23T14:37:52;6.97;;;3.70;;
1376;SDS011;682;52.502;13.488;2022-07-23T14:40:21;8.00;;;3.50;;
1376;SDS011;682;52.502;13.488;2022-07-23T14:42:48;7.30;;;3.70;;
1376;SDS011;682;52.502;13.488;2022-07-23T14:45:18;7.57;;;3.40;;
1376;SDS011;682;52.502;13.488;2022-07-23T14:47:47;6.97;;;3.13;;
1376;SDS011;682;52.502;13.488;2022-07-23T14:50:15;7.30;;;2.97;;
1376;SDS011;682;52.502;13.488;2022-07-23T14:52:47;8.60;;;3.60;;
1376;SDS011;682;52.502;13.488;2022-07-23T14:55:14;7.60;;;2.97;;
1376;SDS011;682;52.502;13.488;2022-07-23T14:57:43;6.27;;;2.90;;
1376;SDS011;682;52.502;13.488;2022-07-23T15:00:10;7.50;;;3.23;;
1376;SDS011;682;52.502;13.488;2022-07-23T15:02:41;8.63;;;3.30;;
1376;SDS011;682;52.502;13.488;2022-07-23T15:05:08;6.70;;;2.70;;
1376;SDS011;682;52.502;13.488;2022-07-23T15:07:39;7.63;;;2.73;;
1376;SDS011;682;52.502;13.488;2022-07-23T15:10:07;7.47;;;3.80;;
1376;SDS011;682;52.502;13.488;2022-07-23T15:12:35;7.27;;;2.93;;
1376;SDS011;682;52.502;13.488;2022-07-23T15:15:07;8.90;;;3.23;;
1376;SDS011;682;52.502;13.488;2022-07-23T15:17:35;6.80;;;2.67;;
1376;SDS011;682;52.502;13.488;2022-07-23T15:20:07;6.43;;;3.30;;
1376;SDS011;682;52.502;13.488;2022-07-23T15:22:35;7.00;;;2.83;;
1376;SDS011;682;52.502;13.488;2022-07-23T15:25:07;9.63;;;3.50;;
1376;SDS011;682;52.502;13.488;2022-07-23T15:27:34;6.77;;;2.40;;
1376;SDS011;682;52.502;13.488;2022-07-23T15:30:09;7.13;;;2.70;;
1376;SDS011;682;52.502;13.488;2022-07-23T15:32:40;6.23;;;2.27;;
1376;SDS011;682;52.502;13.488;2022-07-23T15:35:07;6.80;;;2.83;;
1376;SDS011;682;52.502;13.488;2022-07-23T15:37:35;7.10;;;2.80;;
1376;SDS011;682;52.502;13.488;2022-07-23T15:40:02;6.20;;;2.20;;
1376;SDS011;682;52.502;13.488;2022-07-23T15:42:32;6.77;;;2.53;;
1376;SDS011;682;52.502;13.488;2022-07-23T15:45:01;6.40;;;1.87;;
1376;SDS011;682;52.502;13.488;2022-07-23T15:47:28;6.20;;;2.20;;
1376;SDS011;682;52.502;13.488;2022-07-23T15:49:55;6.20;;;2.40;;